sensor_id;sensor_type;location;lat;lon;timestamp;P1;durP1;ratioP1;P2;durP2;ratioP2
83688;SDS011;74527;43.224;0.108;2024-01-16T00:00:35;15.13;;;7.50;;
83688;SDS011;74527;43.224;0.108;2024-01-16T00:03:01;21.40;;;7.93;;
83688;SDS011;74527;43.224;0.108;2024-01-16T00:05:28;13.60;;;7.32;;
83688;SDS011;74527;43.224;0.108;2024-01-16T00:07:54;10.13;;;7.40;;
83688;SDS011;74527;43.224;0.108;2024-01-16T00:10:20;19.65;;;8.30;;
83688;SDS011;74527;43.224;0.108;2024-01-16T00:12:46;16.63;;;10.05;;
83688;SDS011;74527;43.224;0.108;2024-01-16T00:15:12;17.05;;;12.27;;
83688;SDS011;74527;43.224;0.108;2024-01-16T00:17:38;19.20;;;12.35;;
83688;SDS011;74527;43.224;0.108;2024-01-16T00:20:04;19.08;;;12.10;;
83688;SDS011;74527;43.224;0.108;2024-01-16T00:22:30;28.92;;;12.45;;
83688;SDS011;74527;43.224;0.108;2024-01-16T00:24:56;25.80;;;12.73;;
83688;SDS011;74527;43.224;0.108;2024-01-16T00:27:22;24.75;;;12.25;;
83688;SDS011;74527;43.224;0.108;2024-01-16T00:29:48;25.10;;;11.48;;
83688;SDS011;74527;43.224;0.108;2024-01-16T00:32:14;18.17;;;10.63;;
83688;SDS011;74527;43.224;0.108;2024-01-16T00:34:41;18.42;;;9.80;;
83688;SDS011;74527;43.224;0.108;2024-01-16T00:37:07;22.10;;;12.00;;
83688;SDS011;74527;43.224;0.108;2024-01-16T00:39:33;22.92;;;10.27;;
83688;SDS011;74527;43.224;0.108;2024-01-16T00:42:00;18.50;;;10.85;;
83688;SDS011;74527;43.224;0.108;2024-01-16T00:44:26;15.77;;;10.50;;
83688;SDS011;74527;43.224;0.108;2024-01-16T00:46:53;20.33;;;12.80;;
83688;SDS011;74527;43.224;0.108;2024-01-16T00:49:19;17.15;;;9.90;;
83688;SDS011;74527;43.224;0.108;2024-01-16T00:51:45;13.65;;;8.73;;
83688;SDS011;74527;43.224;0.108;2024-01-16T00:54:11;12.57;;;7.55;;
83688;SDS011;74527;43.224;0.108;2024-01-16T00:56:37;15.48;;;6.85;;
83688;SDS011;74527;43.224;0.108;2024-01-16T00:59:03;7.95;;;5.70;;
83688;SDS011;74527;43.224;0.108;2024-01-16T01:01:29;12.48;;;4.88;;
83688;SDS011;74527;43.224;0.108;2024-01-16T01:03:55;6.63;;;4.35;;
83688;SDS011;74527;43.224;0.108;2024-01-16T01:06:21;8.38;;;4.38;;
83688;SDS011;74527;43.224;0.108;2024-01-16T01:08:47;4.72;;;4.28;;
83688;SDS011;74527;43.224;0.108;2024-01-16T01:11:13;10.60;;;4.10;;
83688;SDS011;74527;43.224;0.108;2024-01-16T01:13:39;6.30;;;4.40;;
83688;SDS011;74527;43.224;0.108;2024-01-16T01:16:05;5.20;;;4.45;;
83688;SDS011;74527;43.224;0.108;2024-01-16T01:18:31;6.75;;;4.00;;
83688;SDS011;74527;43.224;0.108;2024-01-16T01:20:57;3.97;;;3.50;;
83688;SDS011;74527;43.224;0.108;2024-01-16T01:23:23;7.10;;;3.00;;
83688;SDS011;74527;43.224;0.108;2024-01-16T01:25:50;6.75;;;3.10;;
83688;SDS011;74527;43.224;0.108;2024-01-16T01:28:16;8.18;;;2.70;;
83688;SDS011;74527;43.224;0.108;2024-01-16T01:30:42;4.07;;;2.72;;
83688;SDS011;74527;43.224;0.108;2024-01-16T01:33:08;2.30;;;2.10;;
83688;SDS011;74527;43.224;0.108;2024-01-16T01:35:34;2.30;;;2.10;;
83688;SDS011;74527;43.224;0.108;2024-01-16T01:38:00;2.20;;;2.08;;
83688;SDS011;74527;43.224;0.108;2024-01-16T01:40:26;1.98;;;1.80;;
83688;SDS011;74527;43.224;0.108;2024-01-16T01:42:52;4.38;;;2.88;;
83688;SDS011;74527;43.224;0.108;2024-01-16T01:45:18;6.88;;;2.55;;
83688;SDS011;74527;43.224;0.108;2024-01-16T01:47:44;2.45;;;2.30;;
83688;SDS011;74527;43.224;0.108;2024-01-16T01:50:11;4.63;;;2.40;;
83688;SDS011;74527;43.224;0.108;2024-01-16T01:52:38;2.15;;;2.05;;
83688;SDS011;74527;43.224;0.108;2024-01-16T01:55:05;2.92;;;2.20;;
83688;SDS011;74527;43.224;0.108;2024-01-16T01:57:32;3.10;;;2.47;;
83688;SDS011;74527;43.224;0.108;2024-01-16T01:59:59;2.38;;;2.17;;
83688;SDS011;74527;43.224;0.108;2024-01-16T02:02:25;2.40;;;1.98;;
83688;SDS011;74527;43.224;0.108;2024-01-16T02:04:52;3.03;;;1.98;;
83688;SDS011;74527;43.224;0.108;2024-01-16T02:07:18;4.63;;;2.10;;
83688;SDS011;74527;43.224;0.108;2024-01-16T02:09:44;2.42;;;1.70;;
83688;SDS011;74527;43.224;0.108;2024-01-16T02:12:10;4.18;;;1.40;;
83688;SDS011;74527;43.224;0.108;2024-01-16T02:14:36;5.65;;;1.80;;
83688;SDS011;74527;43.224;0.108;2024-01-16T02:17:02;2.22;;;1.92;;
83688;SDS011;74527;43.224;0.108;2024-01-16T02:19:28;5.00;;;2.20;;
83688;SDS011;74527;43.224;0.108;2024-01-16T02:22:00;6.22;;;2.13;;
83688;SDS011;74527;43.224;0.108;2024-01-16T02:24:29;2.05;;;1.90;;
83688;SDS011;74527;43.224;0.108;2024-01-16T02:26:55;4.90;;;2.25;;
83688;SDS011;74527;43.224;0.108;2024-01-16T02:29:22;4.63;;;2.38;;
83688;SDS011;74527;43.224;0.108;2024-01-16T02:31:48;5.95;;;2.38;;
83688;SDS011;74527;43.224;0.108;2024-01-16T02:34:14;5.05;;;2.45;;
83688;SDS011;74527;43.224;0.108;2024-01-16T02:36:40;4.40;;;2.92;;
83688;SDS011;74527;43.224;0.108;2024-01-16T02:39:06;11.88;;;3.10;;
83688;SDS011;74527;43.224;0.108;2024-01-16T02:41:32;4.40;;;3.15;;
83688;SDS011;74527;43.224;0.108;2024-01-16T02:43:58;3.45;;;3.10;;
83688;SDS011;74527;43.224;0.108;2024-01-16T02:46:24;2.60;;;2.40;;
83688;SDS011;74527;43.224;0.108;2024-01-16T02:48:50;5.05;;;3.13;;
83688;SDS011;74527;43.224;0.108;2024-01-16T02:51:16;4.60;;;2.90;;
83688;SDS011;74527;43.224;0.108;2024-01-16T02:53:42;4.95;;;3.28;;
83688;SDS011;74527;43.224;0.108;2024-01-16T02:56:08;3.63;;;3.30;;
83688;SDS011;74527;43.224;0.108;2024-01-16T02:58:34;3.78;;;2.80;;
83688;SDS011;74527;43.224;0.108;2024-01-16T03:01:00;7.28;;;3.10;;
83688;SDS011;74527;43.224;0.108;2024-01-16T03:03:26;3.17;;;2.58;;
83688;SDS011;74527;43.224;0.108;2024-01-16T03:05:52;2.88;;;2.67;;
83688;SDS011;74527;43.224;0.108;2024-01-16T03:08:21;4.72;;;2.90;;
83688;SDS011;74527;43.224;0.108;2024-01-16T03:10:47;2.83;;;2.63;;
83688;SDS011;74527;43.224;0.108;2024-01-16T03:13:13;2.72;;;2.53;;
83688;SDS011;74527;43.224;0.108;2024-01-16T03:15:39;3.25;;;2.28;;
83688;SDS011;74527;43.224;0.108;2024-01-16T03:18:06;2.38;;;2.20;;
83688;SDS011;74527;43.224;0.108;2024-01-16T03:20:32;2.28;;;2.08;;
83688;SDS011;74527;43.224;0.108;2024-01-16T03:22:58;4.70;;;2.28;;
83688;SDS011;74527;43.224;0.108;2024-01-16T03:25:24;5.85;;;2.65;;
83688;SDS011;74527;43.224;0.108;2024-01-16T03:27:50;2.55;;;2.10;;
83688;SDS011;74527;43.224;0.108;2024-01-16T03:30:16;2.28;;;2.10;;
83688;SDS011;74527;43.224;0.108;2024-01-16T03:32:42;5.00;;;1.90;;
83688;SDS011;74527;43.224;0.108;2024-01-16T03:35:08;1.90;;;1.75;;
83688;SDS011;74527;43.224;0.108;2024-01-16T03:37:34;4.75;;;1.90;;
83688;SDS011;74527;43.224;0.108;2024-01-16T03:40:00;3.75;;;1.90;;
83688;SDS011;74527;43.224;0.108;2024-01-16T03:42:27;5.93;;;2.08;;
83688;SDS011;74527;43.224;0.108;2024-01-16T03:44:53;1.70;;;1.60;;
83688;SDS011;74527;43.224;0.108;2024-01-16T03:47:19;2.20;;;2.00;;
83688;SDS011;74527;43.224;0.108;2024-01-16T03:49:45;4.90;;;2.20;;
83688;SDS011;74527;43.224;0.108;2024-01-16T03:52:11;4.25;;;2.50;;
83688;SDS011;74527;43.224;0.108;2024-01-16T03:54:37;2.40;;;2.20;;
83688;SDS011;74527;43.224;0.108;2024-01-16T03:57:03;4.28;;;2.60;;
83688;SDS011;74527;43.224;0.108;2024-01-16T03:59:29;3.38;;;2.40;;
83688;SDS011;74527;43.224;0.108;2024-01-16T04:01:55;3.88;;;3.05;;
83688;SDS011;74527;43.224;0.108;2024-01-16T04:04:21;6.13;;;2.90;;
83688;SDS011;74527;43.224;0.108;2024-01-16T04:06:48;8.75;;;3.53;;
83688;SDS011;74527;43.224;0.108;2024-01-16T04:09:14;6.63;;;3.03;;
83688;SDS011;74527;43.224;0.108;2024-01-16T04:11:40;6.18;;;3.45;;
83688;SDS011;74527;43.224;0.108;2024-01-16T04:14:06;4.13;;;3.33;;
83688;SDS011;74527;43.224;0.108;2024-01-16T04:16:32;3.90;;;3.47;;
83688;SDS011;74527;43.224;0.108;2024-01-16T04:18:58;7.88;;;3.25;;
83688;SDS011;74527;43.224;0.108;2024-01-16T04:21:24;5.03;;;2.17;;
83688;SDS011;74527;43.224;0.108;2024-01-16T04:23:51;5.55;;;2.55;;
83688;SDS011;74527;43.224;0.108;2024-01-16T04:26:17;5.45;;;2.40;;
83688;SDS011;74527;43.224;0.108;2024-01-16T04:28:43;1.80;;;1.70;;
83688;SDS011;74527;43.224;0.108;2024-01-16T04:31:09;2.63;;;1.90;;
83688;SDS011;74527;43.224;0.108;2024-01-16T04:33:37;1.80;;;1.55;;
83688;SDS011;74527;43.224;0.108;2024-01-16T04:36:03;2.25;;;1.50;;
83688;SDS011;74527;43.224;0.108;2024-01-16T04:38:29;5.53;;;1.50;;
83688;SDS011;74527;43.224;0.108;2024-01-16T04:40:56;2.50;;;1.38;;
83688;SDS011;74527;43.224;0.108;2024-01-16T04:43:22;2.25;;;1.50;;
83688;SDS011;74527;43.224;0.108;2024-01-16T04:45:48;2.75;;;1.42;;
83688;SDS011;74527;43.224;0.108;2024-01-16T04:48:14;6.10;;;1.42;;
83688;SDS011;74527;43.224;0.108;2024-01-16T04:50:40;2.60;;;1.38;;
83688;SDS011;74527;43.224;0.108;2024-01-16T04:53:06;4.95;;;1.33;;
83688;SDS011;74527;43.224;0.108;2024-01-16T04:55:32;3.35;;;1.50;;
83688;SDS011;74527;43.224;0.108;2024-01-16T04:57:58;24.52;;;15.10;;
83688;SDS011;74527;43.224;0.108;2024-01-16T05:00:25;25.80;;;14.57;;
83688;SDS011;74527;43.224;0.108;2024-01-16T05:02:51;5.75;;;2.70;;
83688;SDS011;74527;43.224;0.108;2024-01-16T05:05:17;2.03;;;1.90;;
83688;SDS011;74527;43.224;0.108;2024-01-16T05:07:43;6.68;;;2.15;;
83688;SDS011;74527;43.224;0.108;2024-01-16T05:10:10;5.70;;;2.90;;
83688;SDS011;74527;43.224;0.108;2024-01-16T05:12:38;4.47;;;2.60;;
83688;SDS011;74527;43.224;0.108;2024-01-16T05:15:04;6.28;;;3.22;;
83688;SDS011;74527;43.224;0.108;2024-01-16T05:17:30;6.97;;;3.13;;
83688;SDS011;74527;43.224;0.108;2024-01-16T05:19:56;9.80;;;2.88;;
83688;SDS011;74527;43.224;0.108;2024-01-16T05:22:22;2.75;;;2.30;;
83688;SDS011;74527;43.224;0.108;2024-01-16T05:24:50;43.85;;;17.80;;
83688;SDS011;74527;43.224;0.108;2024-01-16T05:27:16;6.22;;;3.63;;
83688;SDS011;74527;43.224;0.108;2024-01-16T05:29:42;2.40;;;1.42;;
83688;SDS011;74527;43.224;0.108;2024-01-16T05:32:08;5.15;;;1.20;;
83688;SDS011;74527;43.224;0.108;2024-01-16T05:34:34;1.75;;;1.20;;
83688;SDS011;74527;43.224;0.108;2024-01-16T05:37:00;8.43;;;1.40;;
83688;SDS011;74527;43.224;0.108;2024-01-16T05:39:26;4.38;;;1.00;;
83688;SDS011;74527;43.224;0.108;2024-01-16T05:41:52;5.97;;;1.23;;
83688;SDS011;74527;43.224;0.108;2024-01-16T05:44:18;6.65;;;0.90;;
83688;SDS011;74527;43.224;0.108;2024-01-16T05:46:44;2.05;;;0.95;;
83688;SDS011;74527;43.224;0.108;2024-01-16T05:49:10;2.22;;;0.90;;
83688;SDS011;74527;43.224;0.108;2024-01-16T05:51:36;22.23;;;8.95;;
83688;SDS011;74527;43.224;0.108;2024-01-16T05:54:02;3.25;;;1.60;;
83688;SDS011;74527;43.224;0.108;2024-01-16T05:56:28;3.72;;;1.30;;
83688;SDS011;74527;43.224;0.108;2024-01-16T05:58:55;2.13;;;1.10;;
83688;SDS011;74527;43.224;0.108;2024-01-16T06:01:21;1.00;;;1.00;;
83688;SDS011;74527;43.224;0.108;2024-01-16T06:03:47;4.50;;;1.10;;
83688;SDS011;74527;43.224;0.108;2024-01-16T06:06:14;8.00;;;1.20;;
83688;SDS011;74527;43.224;0.108;2024-01-16T06:08:40;38.88;;;17.52;;
83688;SDS011;74527;43.224;0.108;2024-01-16T06:11:06;5.25;;;1.80;;
83688;SDS011;74527;43.224;0.108;2024-01-16T06:13:32;5.25;;;1.70;;
83688;SDS011;74527;43.224;0.108;2024-01-16T06:15:58;1.17;;;1.10;;
83688;SDS011;74527;43.224;0.108;2024-01-16T06:18:25;2.20;;;1.20;;
83688;SDS011;74527;43.224;0.108;2024-01-16T06:20:51;6.32;;;1.58;;
83688;SDS011;74527;43.224;0.108;2024-01-16T06:23:17;1.30;;;1.20;;
83688;SDS011;74527;43.224;0.108;2024-01-16T06:25:43;2.38;;;1.30;;
83688;SDS011;74527;43.224;0.108;2024-01-16T06:28:09;6.53;;;1.50;;
83688;SDS011;74527;43.224;0.108;2024-01-16T06:30:35;1.55;;;1.27;;
83688;SDS011;74527;43.224;0.108;2024-01-16T06:33:01;1.75;;;1.10;;
83688;SDS011;74527;43.224;0.108;2024-01-16T06:35:27;4.93;;;1.40;;
83688;SDS011;74527;43.224;0.108;2024-01-16T06:37:53;5.35;;;1.70;;
83688;SDS011;74527;43.224;0.108;2024-01-16T06:40:20;5.57;;;3.25;;
83688;SDS011;74527;43.224;0.108;2024-01-16T06:42:46;10.32;;;4.18;;
83688;SDS011;74527;43.224;0.108;2024-01-16T06:45:12;7.05;;;3.28;;
83688;SDS011;74527;43.224;0.108;2024-01-16T06:47:40;8.27;;;2.00;;
83688;SDS011;74527;43.224;0.108;2024-01-16T06:50:07;7.45;;;2.15;;
83688;SDS011;74527;43.224;0.108;2024-01-16T06:52:33;2.92;;;1.20;;
83688;SDS011;74527;43.224;0.108;2024-01-16T06:54:59;7.40;;;1.10;;
83688;SDS011;74527;43.224;0.108;2024-01-16T06:57:25;2.58;;;1.65;;
83688;SDS011;74527;43.224;0.108;2024-01-16T06:59:52;4.25;;;1.40;;
83688;SDS011;74527;43.224;0.108;2024-01-16T07:02:18;3.25;;;2.10;;
83688;SDS011;74527;43.224;0.108;2024-01-16T07:04:44;5.28;;;1.58;;
83688;SDS011;74527;43.224;0.108;2024-01-16T07:07:10;14.50;;;1.60;;
83688;SDS011;74527;43.224;0.108;2024-01-16T07:09:36;4.53;;;1.60;;
83688;SDS011;74527;43.224;0.108;2024-01-16T07:12:02;6.10;;;2.33;;
83688;SDS011;74527;43.224;0.108;2024-01-16T07:14:30;46.20;;;28.58;;
83688;SDS011;74527;43.224;0.108;2024-01-16T07:16:56;6.25;;;3.30;;
83688;SDS011;74527;43.224;0.108;2024-01-16T07:19:22;8.77;;;5.60;;
83688;SDS011;74527;43.224;0.108;2024-01-16T07:21:48;77.63;;;47.67;;
83688;SDS011;74527;43.224;0.108;2024-01-16T07:24:14;105.93;;;67.00;;
83688;SDS011;74527;43.224;0.108;2024-01-16T07:26:40;69.30;;;44.25;;
83688;SDS011;74527;43.224;0.108;2024-01-16T07:29:06;18.98;;;13.57;;
83688;SDS011;74527;43.224;0.108;2024-01-16T07:31:32;8.70;;;3.10;;
83688;SDS011;74527;43.224;0.108;2024-01-16T07:33:58;6.53;;;2.60;;
83688;SDS011;74527;43.224;0.108;2024-01-16T07:36:24;4.78;;;3.50;;
83688;SDS011;74527;43.224;0.108;2024-01-16T07:38:50;11.60;;;7.07;;
83688;SDS011;74527;43.224;0.108;2024-01-16T07:41:16;17.40;;;10.85;;
83688;SDS011;74527;43.224;0.108;2024-01-16T07:43:42;14.55;;;9.82;;
83688;SDS011;74527;43.224;0.108;2024-01-16T07:46:08;6.20;;;4.40;;
83688;SDS011;74527;43.224;0.108;2024-01-16T07:48:34;4.13;;;3.63;;
83688;SDS011;74527;43.224;0.108;2024-01-16T07:51:00;8.20;;;2.80;;
83688;SDS011;74527;43.224;0.108;2024-01-16T07:53:26;6.60;;;2.55;;
83688;SDS011;74527;43.224;0.108;2024-01-16T07:55:53;8.25;;;4.57;;
83688;SDS011;74527;43.224;0.108;2024-01-16T07:58:32;8.10;;;6.13;;
83688;SDS011;74527;43.224;0.108;2024-01-16T08:00:58;10.75;;;6.65;;
83688;SDS011;74527;43.224;0.108;2024-01-16T08:03:24;16.92;;;14.90;;
83688;SDS011;74527;43.224;0.108;2024-01-16T08:05:50;27.05;;;18.83;;
83688;SDS011;74527;43.224;0.108;2024-01-16T08:08:16;33.92;;;25.05;;
83688;SDS011;74527;43.224;0.108;2024-01-16T08:10:42;34.92;;;29.27;;
83688;SDS011;74527;43.224;0.108;2024-01-16T08:13:09;15.57;;;10.70;;
83688;SDS011;74527;43.224;0.108;2024-01-16T08:15:35;18.98;;;10.13;;
83688;SDS011;74527;43.224;0.108;2024-01-16T08:18:02;11.52;;;6.55;;
83688;SDS011;74527;43.224;0.108;2024-01-16T08:20:28;7.63;;;5.88;;
83688;SDS011;74527;43.224;0.108;2024-01-16T08:22:54;11.90;;;5.43;;
83688;SDS011;74527;43.224;0.108;2024-01-16T08:25:20;12.05;;;6.82;;
83688;SDS011;74527;43.224;0.108;2024-01-16T08:27:46;13.07;;;5.78;;
83688;SDS011;74527;43.224;0.108;2024-01-16T08:30:12;12.52;;;8.07;;
83688;SDS011;74527;43.224;0.108;2024-01-16T08:32:38;14.45;;;7.90;;
83688;SDS011;74527;43.224;0.108;2024-01-16T08:35:04;25.23;;;11.45;;
83688;SDS011;74527;43.224;0.108;2024-01-16T08:37:33;9.52;;;5.47;;
83688;SDS011;74527;43.224;0.108;2024-01-16T08:42:25;8.88;;;5.38;;
83688;SDS011;74527;43.224;0.108;2024-01-16T08:44:51;9.73;;;5.45;;
83688;SDS011;74527;43.224;0.108;2024-01-16T08:47:17;15.30;;;4.88;;
83688;SDS011;74527;43.224;0.108;2024-01-16T08:49:44;4.90;;;3.15;;
83688;SDS011;74527;43.224;0.108;2024-01-16T08:52:10;6.25;;;2.90;;
83688;SDS011;74527;43.224;0.108;2024-01-16T08:54:36;19.95;;;4.15;;
83688;SDS011;74527;43.224;0.108;2024-01-16T08:57:02;17.67;;;4.75;;
83688;SDS011;74527;43.224;0.108;2024-01-16T08:59:29;16.08;;;4.10;;
83688;SDS011;74527;43.224;0.108;2024-01-16T09:01:55;9.95;;;4.57;;
83688;SDS011;74527;43.224;0.108;2024-01-16T09:04:21;19.20;;;4.93;;
83688;SDS011;74527;43.224;0.108;2024-01-16T09:06:47;11.65;;;5.15;;
83688;SDS011;74527;43.224;0.108;2024-01-16T09:09:13;10.25;;;5.00;;
83688;SDS011;74527;43.224;0.108;2024-01-16T09:11:41;9.10;;;6.07;;
83688;SDS011;74527;43.224;0.108;2024-01-16T09:14:07;11.85;;;5.45;;
83688;SDS011;74527;43.224;0.108;2024-01-16T09:16:34;11.77;;;4.68;;
83688;SDS011;74527;43.224;0.108;2024-01-16T09:19:00;17.05;;;4.40;;
83688;SDS011;74527;43.224;0.108;2024-01-16T09:21:26;15.77;;;4.32;;
83688;SDS011;74527;43.224;0.108;2024-01-16T09:23:53;11.85;;;5.13;;
83688;SDS011;74527;43.224;0.108;2024-01-16T09:26:19;10.15;;;4.78;;
83688;SDS011;74527;43.224;0.108;2024-01-16T09:28:45;11.07;;;4.40;;
83688;SDS011;74527;43.224;0.108;2024-01-16T09:31:11;9.05;;;4.75;;
83688;SDS011;74527;43.224;0.108;2024-01-16T09:33:38;10.15;;;4.10;;
83688;SDS011;74527;43.224;0.108;2024-01-16T09:36:04;10.63;;;4.50;;
83688;SDS011;74527;43.224;0.108;2024-01-16T09:38:30;8.43;;;4.20;;
83688;SDS011;74527;43.224;0.108;2024-01-16T09:40:56;7.97;;;3.75;;
83688;SDS011;74527;43.224;0.108;2024-01-16T09:43:25;8.00;;;2.67;;
83688;SDS011;74527;43.224;0.108;2024-01-16T09:45:51;10.88;;;4.22;;
83688;SDS011;74527;43.224;0.108;2024-01-16T09:48:18;8.13;;;5.13;;
83688;SDS011;74527;43.224;0.108;2024-01-16T09:50:44;10.07;;;4.43;;
83688;SDS011;74527;43.224;0.108;2024-01-16T09:53:11;6.22;;;4.25;;
83688;SDS011;74527;43.224;0.108;2024-01-16T09:55:37;6.00;;;2.67;;
83688;SDS011;74527;43.224;0.108;2024-01-16T09:58:03;4.97;;;2.10;;
83688;SDS011;74527;43.224;0.108;2024-01-16T10:00:30;9.55;;;2.65;;
83688;SDS011;74527;43.224;0.108;2024-01-16T10:02:57;5.47;;;2.15;;
83688;SDS011;74527;43.224;0.108;2024-01-16T10:05:23;6.65;;;2.15;;
83688;SDS011;74527;43.224;0.108;2024-01-16T10:07:50;3.88;;;2.13;;
83688;SDS011;74527;43.224;0.108;2024-01-16T10:10:17;6.90;;;1.77;;
83688;SDS011;74527;43.224;0.108;2024-01-16T10:12:45;5.32;;;1.20;;
83688;SDS011;74527;43.224;0.108;2024-01-16T10:15:12;4.88;;;3.10;;
83688;SDS011;74527;43.224;0.108;2024-01-16T10:17:42;6.30;;;1.30;;
83688;SDS011;74527;43.224;0.108;2024-01-16T10:20:09;5.68;;;1.85;;
83688;SDS011;74527;43.224;0.108;2024-01-16T10:22:41;3.28;;;1.40;;
83688;SDS011;74527;43.224;0.108;2024-01-16T10:25:10;6.53;;;2.15;;
83688;SDS011;74527;43.224;0.108;2024-01-16T10:27:45;10.88;;;3.42;;
83688;SDS011;74527;43.224;0.108;2024-01-16T10:30:11;5.43;;;2.30;;
83688;SDS011;74527;43.224;0.108;2024-01-16T10:32:39;2.00;;;1.58;;
83688;SDS011;74527;43.224;0.108;2024-01-16T10:37:47;3.95;;;1.63;;
83688;SDS011;74527;43.224;0.108;2024-01-16T10:40:14;4.82;;;1.60;;
83688;SDS011;74527;43.224;0.108;2024-01-16T10:42:41;11.32;;;1.75;;
83688;SDS011;74527;43.224;0.108;2024-01-16T10:45:07;3.05;;;1.63;;
83688;SDS011;74527;43.224;0.108;2024-01-16T10:47:33;6.90;;;2.33;;
83688;SDS011;74527;43.224;0.108;2024-01-16T10:50:03;3.22;;;1.60;;
83688;SDS011;74527;43.224;0.108;2024-01-16T10:52:29;12.43;;;3.97;;
83688;SDS011;74527;43.224;0.108;2024-01-16T10:54:56;8.23;;;2.78;;
83688;SDS011;74527;43.224;0.108;2024-01-16T10:57:24;8.18;;;1.85;;
83688;SDS011;74527;43.224;0.108;2024-01-16T10:59:54;4.30;;;1.25;;
83688;SDS011;74527;43.224;0.108;2024-01-16T11:02:24;2.88;;;1.05;;
83688;SDS011;74527;43.224;0.108;2024-01-16T11:04:50;5.10;;;1.20;;
83688;SDS011;74527;43.224;0.108;2024-01-16T11:07:19;3.45;;;0.98;;
83688;SDS011;74527;43.224;0.108;2024-01-16T11:09:47;3.15;;;0.80;;
83688;SDS011;74527;43.224;0.108;2024-01-16T11:12:14;6.30;;;1.00;;
83688;SDS011;74527;43.224;0.108;2024-01-16T11:14:43;4.63;;;1.52;;
83688;SDS011;74527;43.224;0.108;2024-01-16T11:17:10;2.63;;;0.98;;
83688;SDS011;74527;43.224;0.108;2024-01-16T11:19:42;8.70;;;1.00;;
83688;SDS011;74527;43.224;0.108;2024-01-16T11:22:09;5.63;;;2.20;;
83688;SDS011;74527;43.224;0.108;2024-01-16T11:24:35;6.10;;;1.17;;
83688;SDS011;74527;43.224;0.108;2024-01-16T11:27:01;4.07;;;1.38;;
83688;SDS011;74527;43.224;0.108;2024-01-16T11:31:55;2.42;;;1.17;;
83688;SDS011;74527;43.224;0.108;2024-01-16T11:37:10;5.78;;;1.17;;
83688;SDS011;74527;43.224;0.108;2024-01-16T11:39:37;9.18;;;1.65;;
83688;SDS011;74527;43.224;0.108;2024-01-16T11:42:03;7.43;;;1.33;;
83688;SDS011;74527;43.224;0.108;2024-01-16T11:44:43;5.70;;;1.05;;
83688;SDS011;74527;43.224;0.108;2024-01-16T11:47:21;3.25;;;1.17;;
83688;SDS011;74527;43.224;0.108;2024-01-16T11:49:49;2.72;;;1.02;;
83688;SDS011;74527;43.224;0.108;2024-01-16T11:52:38;5.10;;;1.00;;
83688;SDS011;74527;43.224;0.108;2024-01-16T11:55:23;6.78;;;1.13;;
83688;SDS011;74527;43.224;0.108;2024-01-16T11:58:11;3.65;;;0.75;;
83688;SDS011;74527;43.224;0.108;2024-01-16T12:00:39;3.47;;;1.02;;
83688;SDS011;74527;43.224;0.108;2024-01-16T12:03:06;2.67;;;1.05;;
83688;SDS011;74527;43.224;0.108;2024-01-16T12:05:32;5.10;;;1.08;;
83688;SDS011;74527;43.224;0.108;2024-01-16T12:07:59;3.60;;;1.27;;
83688;SDS011;74527;43.224;0.108;2024-01-16T12:10:28;2.00;;;1.00;;
83688;SDS011;74527;43.224;0.108;2024-01-16T12:12:58;3.67;;;1.17;;
83688;SDS011;74527;43.224;0.108;2024-01-16T12:15:24;2.10;;;0.80;;
83688;SDS011;74527;43.224;0.108;2024-01-16T12:17:54;5.53;;;1.20;;
83688;SDS011;74527;43.224;0.108;2024-01-16T12:20:20;6.20;;;0.82;;
83688;SDS011;74527;43.224;0.108;2024-01-16T12:22:53;8.32;;;1.48;;
83688;SDS011;74527;43.224;0.108;2024-01-16T12:25:19;3.33;;;1.05;;
83688;SDS011;74527;43.224;0.108;2024-01-16T12:27:53;4.53;;;1.00;;
83688;SDS011;74527;43.224;0.108;2024-01-16T12:30:19;2.75;;;1.17;;
83688;SDS011;74527;43.224;0.108;2024-01-16T12:32:45;3.10;;;1.13;;
83688;SDS011;74527;43.224;0.108;2024-01-16T12:35:11;2.20;;;1.13;;
83688;SDS011;74527;43.224;0.108;2024-01-16T12:37:38;3.72;;;1.08;;
83688;SDS011;74527;43.224;0.108;2024-01-16T12:40:04;2.60;;;1.17;;
83688;SDS011;74527;43.224;0.108;2024-01-16T12:42:31;5.57;;;1.20;;
83688;SDS011;74527;43.224;0.108;2024-01-16T12:44:58;2.10;;;0.85;;
83688;SDS011;74527;43.224;0.108;2024-01-16T12:47:24;2.28;;;0.93;;
83688;SDS011;74527;43.224;0.108;2024-01-16T12:49:50;7.32;;;1.15;;
83688;SDS011;74527;43.224;0.108;2024-01-16T12:52:17;3.33;;;1.23;;
83688;SDS011;74527;43.224;0.108;2024-01-16T12:54:43;8.07;;;1.58;;
83688;SDS011;74527;43.224;0.108;2024-01-16T12:57:10;4.85;;;1.40;;
83688;SDS011;74527;43.224;0.108;2024-01-16T12:59:39;1.35;;;0.90;;
83688;SDS011;74527;43.224;0.108;2024-01-16T13:02:05;2.78;;;0.95;;
83688;SDS011;74527;43.224;0.108;2024-01-16T13:04:32;5.55;;;1.40;;
83688;SDS011;74527;43.224;0.108;2024-01-16T13:07:01;3.85;;;1.17;;
83688;SDS011;74527;43.224;0.108;2024-01-16T13:09:28;3.03;;;1.05;;
83688;SDS011;74527;43.224;0.108;2024-01-16T13:11:54;3.78;;;1.63;;
83688;SDS011;74527;43.224;0.108;2024-01-16T13:14:22;5.53;;;1.33;;
83688;SDS011;74527;43.224;0.108;2024-01-16T13:16:48;3.47;;;1.33;;
83688;SDS011;74527;43.224;0.108;2024-01-16T13:19:18;5.43;;;1.83;;
83688;SDS011;74527;43.224;0.108;2024-01-16T13:21:44;4.88;;;1.20;;
83688;SDS011;74527;43.224;0.108;2024-01-16T13:24:11;5.75;;;2.13;;
83688;SDS011;74527;43.224;0.108;2024-01-16T13:26:38;6.03;;;1.65;;
83688;SDS011;74527;43.224;0.108;2024-01-16T13:29:05;4.38;;;1.30;;
83688;SDS011;74527;43.224;0.108;2024-01-16T13:31:31;3.83;;;1.67;;
83688;SDS011;74527;43.224;0.108;2024-01-16T13:33:57;5.70;;;1.45;;
83688;SDS011;74527;43.224;0.108;2024-01-16T13:36:23;8.05;;;2.25;;
83688;SDS011;74527;43.224;0.108;2024-01-16T13:38:50;4.95;;;1.83;;
83688;SDS011;74527;43.224;0.108;2024-01-16T13:41:16;6.22;;;2.00;;
83688;SDS011;74527;43.224;0.108;2024-01-16T13:43:42;9.00;;;1.85;;
83688;SDS011;74527;43.224;0.108;2024-01-16T13:46:08;15.52;;;2.08;;
83688;SDS011;74527;43.224;0.108;2024-01-16T13:48:35;3.95;;;1.38;;
83688;SDS011;74527;43.224;0.108;2024-01-16T13:51:01;2.75;;;1.15;;
83688;SDS011;74527;43.224;0.108;2024-01-16T13:53:29;7.88;;;2.95;;
83688;SDS011;74527;43.224;0.108;2024-01-16T13:55:55;6.90;;;1.77;;
83688;SDS011;74527;43.224;0.108;2024-01-16T13:58:23;3.75;;;1.80;;
83688;SDS011;74527;43.224;0.108;2024-01-16T14:00:49;4.05;;;1.60;;
83688;SDS011;74527;43.224;0.108;2024-01-16T14:03:16;5.68;;;1.95;;
83688;SDS011;74527;43.224;0.108;2024-01-16T14:05:42;4.03;;;1.73;;
83688;SDS011;74527;43.224;0.108;2024-01-16T14:08:08;4.45;;;1.90;;
83688;SDS011;74527;43.224;0.108;2024-01-16T14:10:37;3.20;;;1.63;;
83688;SDS011;74527;43.224;0.108;2024-01-16T14:13:04;4.10;;;1.33;;
83688;SDS011;74527;43.224;0.108;2024-01-16T14:15:30;2.72;;;1.20;;
83688;SDS011;74527;43.224;0.108;2024-01-16T14:17:56;3.28;;;1.25;;
83688;SDS011;74527;43.224;0.108;2024-01-16T14:20:23;1.50;;;1.20;;
83688;SDS011;74527;43.224;0.108;2024-01-16T14:22:51;3.38;;;1.92;;
83688;SDS011;74527;43.224;0.108;2024-01-16T14:25:18;3.83;;;1.92;;
83688;SDS011;74527;43.224;0.108;2024-01-16T14:27:45;4.88;;;1.45;;
83688;SDS011;74527;43.224;0.108;2024-01-16T14:30:15;6.47;;;1.73;;
83688;SDS011;74527;43.224;0.108;2024-01-16T14:32:42;3.50;;;1.80;;
83688;SDS011;74527;43.224;0.108;2024-01-16T14:35:09;6.78;;;1.38;;
83688;SDS011;74527;43.224;0.108;2024-01-16T14:37:36;3.13;;;1.33;;
83688;SDS011;74527;43.224;0.108;2024-01-16T14:40:02;3.60;;;1.00;;
83688;SDS011;74527;43.224;0.108;2024-01-16T14:42:32;4.55;;;1.20;;
83688;SDS011;74527;43.224;0.108;2024-01-16T14:44:59;5.18;;;1.40;;
83688;SDS011;74527;43.224;0.108;2024-01-16T14:47:25;5.35;;;1.92;;
83688;SDS011;74527;43.224;0.108;2024-01-16T14:49:51;5.07;;;1.10;;